Time;durP1;ratioP1;P1;durP2;ratioP2;P2;SDS_P1;SDS_P2;PMS_P1;PMS_P2;Temp;Humidity;BMP_temperature;BMP_pressure;BME280_temperature;BME280_humidity;BME280_pressure;Samples;Min_cycle;Max_cycle;Signal;HPM_P1;HPM_P2
2022/07/13 00:00:40;;;;;;;0.73;0.40;;;;;;;32.92;20.50;98326.19;5083044;28;20036;-79
2022/07/13 00:03:07;;;;;;;0.40;0.30;;;;;;;32.71;20.81;98330.97;5085310;28;20036;-79
2022/07/13 00:05:33;;;;;;;0.55;0.47;;;;;;;32.63;20.18;98328.97;5084642;28;20032;-79
2022/07/13 00:07:59;;;;;;;0.40;0.30;;;;;;;32.11;21.01;98321.94;5081444;28;20164;-79
2022/07/13 00:10:25;;;;;;;0.30;0.30;;;;;;;31.94;21.10;98332.09;5071487;28;20037;-79
2022/07/13 00:12:51;;;;;;;0.30;0.30;;;;;;;32.32;20.98;98314.38;5066326;28;20481;-79
2022/07/13 00:15:17;;;;;;;0.20;0.20;;;;;;;32.64;20.54;98322.03;5066522;28;20067;-79
2022/07/13 00:17:43;;;;;;;2.63;0.43;;;;;;;31.25;21.53;98318.81;5069621;28;20068;-79
2022/07/13 00:20:10;;;;;;;1.38;0.95;;;;;;;31.35;21.26;98328.06;5067903;28;20413;-79
2022/07/13 00:22:36;;;;;;;0.32;0.30;;;;;;;31.74;21.22;98327.00;5067521;28;20036;-79
2022/07/13 00:25:02;;;;;;;2.60;0.38;;;;;;;31.14;22.78;98320.56;5073293;28;20066;-79
2022/07/13 00:27:28;;;;;;;1.02;0.47;;;;;;;31.24;21.83;98328.59;5082658;28;20032;-80
2022/07/13 00:29:54;;;;;;;1.10;0.40;;;;;;;31.29;22.00;98330.00;5079670;28;20048;-79
2022/07/13 00:32:20;;;;;;;0.75;0.40;;;;;;;31.89;21.43;98327.88;5079856;28;20391;-80
2022/07/13 00:34:46;;;;;;;0.73;0.20;;;;;;;31.93;21.31;98322.00;5076860;28;20124;-79
2022/07/13 00:37:13;;;;;;;0.30;0.20;;;;;;;32.06;21.07;98322.59;5076598;28;20161;-80
2022/07/13 00:39:39;;;;;;;0.70;0.25;;;;;;;31.91;20.77;98318.88;5076152;28;21057;-79
2022/07/13 00:42:05;;;;;;;0.52;0.35;;;;;;;31.96;21.24;98324.72;5077686;28;20032;-79
2022/07/13 00:44:31;;;;;;;0.20;0.20;;;;;;;31.99;21.12;98335.13;5073068;28;20023;-79
2022/07/13 00:46:57;;;;;;;0.28;0.28;;;;;;;31.74;21.01;98329.06;5076688;28;20109;-79
2022/07/13 00:49:24;;;;;;;0.30;0.20;;;;;;;31.82;20.90;98324.59;5078083;28;20032;-79
2022/07/13 00:51:50;;;;;;;0.55;0.38;;;;;;;31.30;21.65;98334.41;5075953;28;20067;-79
2022/07/13 00:54:19;;;;;;;0.40;0.28;;;;;;;30.88;22.06;98319.38;5080336;28;20100;-79
2022/07/13 00:56:47;;;;;;;1.05;0.43;;;;;;;30.88;21.77;98327.88;5077340;28;20035;-79
2022/07/13 00:59:14;;;;;;;1.17;0.30;;;;;;;31.10;21.34;98322.78;5077671;28;20048;-79
2022/07/13 01:01:40;;;;;;;0.85;0.25;;;;;;;31.35;21.30;98325.25;5073352;28;20028;-80
2022/07/13 01:04:06;;;;;;;0.22;0.22;;;;;;;30.95;22.67;98319.84;5074933;28;20035;-79
2022/07/13 01:06:32;;;;;;;0.47;0.38;;;;;;;31.13;21.92;98316.97;5076408;28;20032;-79
2022/07/13 01:08:59;;;;;;;1.08;0.40;;;;;;;31.23;21.70;98320.53;5075397;28;20422;-79
2022/07/13 01:11:25;;;;;;;1.42;0.50;;;;;;;31.01;21.48;98320.78;5075359;28;20033;-79
2022/07/13 01:13:52;;;;;;;0.75;0.60;;;;;;;30.33;22.44;98312.91;5081858;28;20020;-79
2022/07/13 01:16:18;;;;;;;2.95;0.32;;;;;;;30.50;22.11;98306.44;5081953;28;20624;-79
2022/07/13 01:18:44;;;;;;;1.25;0.50;;;;;;;30.67;22.39;98306.91;5081203;28;20042;-79
2022/07/13 01:21:12;;;;;;;0.32;0.32;;;;;;;30.70;22.74;98320.16;5062881;28;20036;-79
2022/07/13 01:23:40;;;;;;;1.95;0.30;;;;;;;30.80;22.34;98315.25;5076122;28;20086;-79
2022/07/13 01:26:07;;;;;;;0.60;0.50;;;;;;;30.50;22.46;98309.28;5082236;28;20040;-79
2022/07/13 01:28:33;;;;;;;0.50;0.20;;;;;;;30.56;22.24;98317.97;5074354;28;20028;-79
2022/07/13 01:30:59;;;;;;;0.65;0.57;;;;;;;30.51;22.09;98313.72;5078363;28;20056;-79
2022/07/13 01:33:25;;;;;;;0.75;0.30;;;;;;;30.61;22.16;98306.78;5077838;28;20028;-79
2022/07/13 01:35:51;;;;;;;8.68;0.50;;;;;;;30.86;21.64;98313.34;5055300;28;20049;-79
2022/07/13 01:38:17;;;;;;;0.65;0.40;;;;;;;31.12;21.39;98308.91;5076611;28;20034;-79
2022/07/13 01:40:43;;;;;;;0.35;0.30;;;;;;;31.21;21.37;98303.22;5080112;28;20376;-80
2022/07/13 01:43:12;;;;;;;0.20;0.20;;;;;;;31.16;21.21;98301.03;5078765;28;20105;-80
2022/07/13 01:45:39;;;;;;;1.70;0.52;;;;;;;30.74;21.94;98313.06;5074860;28;20418;-80
2022/07/13 01:48:05;;;;;;;0.40;0.38;;;;;;;30.84;21.72;98313.03;5081772;28;20110;-80
2022/07/13 01:50:31;;;;;;;1.35;0.47;;;;;;;30.48;22.31;98306.13;5075802;28;20032;-80
2022/07/13 01:52:57;;;;;;;1.40;0.50;;;;;;;30.54;22.01;98312.78;5075380;28;20035;-80
2022/07/13 01:55:23;;;;;;;1.38;0.57;;;;;;;30.40;22.24;98312.59;5081529;28;20056;-79
2022/07/13 01:57:59;;;;;;;0.57;0.35;;;;;;;30.61;21.94;98315.28;5076432;28;20048;-80
2022/07/13 02:00:26;;;;;;;0.45;0.20;;;;;;;30.37;22.40;98310.72;5073830;28;20032;-80
2022/07/13 02:02:54;;;;;;;1.30;0.47;;;;;;;30.66;21.77;98323.16;5079455;28;20131;-80
2022/07/13 02:05:20;;;;;;;0.22;0.22;;;;;;;30.55;21.80;98310.72;5080575;28;20028;-80
2022/07/13 02:07:46;;;;;;;3.70;0.50;;;;;;;30.56;21.99;98312.28;5077703;28;20107;-80
2022/07/13 02:10:13;;;;;;;0.95;0.40;;;;;;;30.77;21.86;98314.97;5074994;28;20110;-80
2022/07/13 02:12:39;;;;;;;0.50;0.30;;;;;;;30.72;21.50;98311.97;5078069;28;20023;-79
2022/07/13 02:15:07;;;;;;;0.85;0.40;;;;;;;30.71;21.76;98313.22;5091788;28;20514;-79
2022/07/13 02:17:33;;;;;;;0.30;0.20;;;;;;;30.51;21.98;98316.53;5079382;28;20079;-79
2022/07/13 02:19:59;;;;;;;2.10;0.35;;;;;;;30.61;21.75;98309.63;5076810;28;20028;-79
2022/07/13 02:22:25;;;;;;;0.30;0.30;;;;;;;30.55;22.03;98307.91;5081441;28;20505;-79
2022/07/13 02:24:51;;;;;;;2.28;0.50;;;;;;;29.76;22.89;98311.69;5079131;28;20035;-79
2022/07/13 02:27:17;;;;;;;0.47;0.35;;;;;;;30.09;22.51;98307.03;5094496;28;20111;-79
2022/07/13 02:29:43;;;;;;;1.40;0.40;;;;;;;30.20;22.47;98307.34;5089934;28;20046;-79
2022/07/13 02:32:10;;;;;;;1.13;0.30;;;;;;;29.99;22.42;98303.41;5079192;28;20459;-79
2022/07/13 02:34:36;;;;;;;1.13;0.40;;;;;;;30.18;22.62;98303.44;5088537;28;20032;-79
2022/07/13 02:37:02;;;;;;;1.75;0.40;;;;;;;30.15;22.45;98305.16;5092924;28;20475;-79
2022/07/13 02:39:28;;;;;;;1.85;0.50;;;;;;;30.01;22.43;98306.53;5072676;28;20090;-79
2022/07/13 02:41:54;;;;;;;0.95;0.47;;;;;;;30.13;22.42;98312.56;5089720;28;20036;-79
2022/07/13 02:44:20;;;;;;;0.88;0.40;;;;;;;29.74;22.80;98312.13;5082763;28;20107;-79
2022/07/13 02:46:46;;;;;;;0.55;0.40;;;;;;;30.07;22.62;98306.72;5090899;28;20066;-79
2022/07/13 02:49:12;;;;;;;1.73;0.30;;;;;;;29.90;22.77;98303.38;5090514;28;20035;-79
2022/07/13 02:51:38;;;;;;;1.00;0.38;;;;;;;30.04;22.57;98316.16;5085477;28;20054;-79
2022/07/13 02:54:04;;;;;;;1.20;0.45;;;;;;;29.90;22.73;98311.88;5088250;28;20504;-79
2022/07/13 02:56:30;;;;;;;0.65;0.40;;;;;;;29.91;23.03;98318.34;5086069;28;20043;-79
2022/07/13 02:58:57;;;;;;;2.58;0.50;;;;;;;30.06;22.94;98319.28;5082578;28;20040;-79
2022/07/13 03:01:23;;;;;;;1.48;0.40;;;;;;;29.89;23.06;98315.19;5089190;28;20039;-79
2022/07/13 03:03:49;;;;;;;0.60;0.50;;;;;;;30.00;22.68;98310.66;5090898;28;20029;-78
2022/07/13 03:06:15;;;;;;;1.05;0.50;;;;;;;29.49;23.98;98317.22;5094924;28;20065;-79
2022/07/13 03:08:41;;;;;;;1.13;0.52;;;;;;;29.59;23.43;98322.47;5093508;28;20032;-79
2022/07/13 03:11:07;;;;;;;0.65;0.40;;;;;;;29.75;23.33;98315.75;5077015;28;20048;-79
2022/07/13 03:13:33;;;;;;;1.45;0.93;;;;;;;30.18;22.86;98318.38;5067093;28;20496;-79
2022/07/13 03:15:59;;;;;;;0.35;0.30;;;;;;;30.08;22.63;98322.47;5091651;28;20392;-79
2022/07/13 03:18:26;;;;;;;1.63;0.60;;;;;;;29.47;23.56;98333.88;5093886;28;20024;-78
2022/07/13 03:20:52;;;;;;;0.77;0.50;;;;;;;29.40;23.74;98330.09;5072455;28;20059;-79
2022/07/13 03:23:18;;;;;;;1.92;0.52;;;;;;;28.96;24.62;98330.59;5083641;28;20028;-79
2022/07/13 03:25:44;;;;;;;1.85;0.50;;;;;;;29.33;23.95;98333.19;5082260;28;20488;-79
2022/07/13 03:28:10;;;;;;;0.68;0.63;;;;;;;29.85;23.45;98337.19;5091991;28;20044;-79
2022/07/13 03:30:36;;;;;;;2.05;0.50;;;;;;;29.04;24.45;98332.69;5084062;28;20119;-79
2022/07/13 03:33:03;;;;;;;0.43;0.40;;;;;;;29.10;24.52;98336.47;5087456;28;20051;-79
2022/07/13 03:35:29;;;;;;;2.88;0.57;;;;;;;29.60;24.09;98343.84;5077837;28;20040;-79
2022/07/13 03:37:55;;;;;;;0.43;0.40;;;;;;;29.64;24.12;98340.88;5090385;28;20430;-79
2022/07/13 03:40:21;;;;;;;0.63;0.50;;;;;;;30.22;23.55;98344.53;5099794;28;20040;-79
2022/07/13 03:42:47;;;;;;;0.98;0.50;;;;;;;31.07;22.97;98343.59;5080159;28;20074;-79
2022/07/13 03:45:13;;;;;;;1.63;0.40;;;;;;;32.41;22.37;98331.34;5079823;28;20378;-79
2022/07/13 03:47:39;;;;;;;1.05;0.40;;;;;;;33.29;20.50;98338.00;5088142;28;20032;-79
2022/07/13 03:50:06;;;;;;;1.58;0.52;;;;;;;32.95;20.89;98342.28;5099329;28;20036;-79
2022/07/13 03:52:32;;;;;;;1.40;0.45;;;;;;;33.35;20.88;98342.50;5078012;28;20036;-79
2022/07/13 03:54:58;;;;;;;0.40;0.30;;;;;;;33.61;20.38;98348.41;5083243;28;20104;-79
2022/07/13 03:57:24;;;;;;;0.47;0.47;;;;;;;33.73;20.36;98344.47;5082820;28;20488;-79
2022/07/13 03:59:50;;;;;;;2.50;0.68;;;;;;;33.38;20.41;98346.44;5078716;28;20098;-80
2022/07/13 04:02:17;;;;;;;0.32;0.30;;;;;;;33.37;20.58;98348.50;5081268;28;20036;-79
2022/07/13 04:04:43;;;;;;;1.85;0.93;;;;;;;33.42;21.16;98344.97;5070137;28;20040;-80
2022/07/13 04:07:09;;;;;;;0.80;0.50;;;;;;;32.93;21.70;98341.97;5094341;28;20395;-80
2022/07/13 04:09:35;;;;;;;0.75;0.45;;;;;;;32.92;21.30;98340.41;5082065;28;20032;-80
2022/07/13 04:12:01;;;;;;;1.08;0.52;;;;;;;32.68;21.99;98339.69;5078497;28;20111;-80
2022/07/13 04:14:27;;;;;;;0.68;0.40;;;;;;;32.41;22.26;98340.69;5086434;28;20093;-80
2022/07/13 04:16:53;;;;;;;2.28;0.57;;;;;;;32.60;22.14;98336.41;5078738;28;20036;-80
2022/07/13 04:19:19;;;;;;;0.65;0.50;;;;;;;33.04;21.35;98335.75;5078029;28;20078;-80
2022/07/13 04:21:45;;;;;;;1.08;0.50;;;;;;;33.62;21.20;98332.91;5076487;28;20040;-80
2022/07/13 04:24:12;;;;;;;0.82;0.40;;;;;;;33.77;21.52;98327.94;5075700;28;20023;-80
2022/07/13 04:26:38;;;;;;;0.40;0.30;;;;;;;34.08;20.89;98333.09;5079982;28;20024;-80
2022/07/13 04:29:04;;;;;;;1.75;0.40;;;;;;;33.15;21.80;98336.75;5075516;28;20040;-79
2022/07/13 04:31:30;;;;;;;0.50;0.32;;;;;;;33.25;21.89;98328.88;5077265;28;20433;-80
2022/07/13 04:33:56;;;;;;;1.63;0.60;;;;;;;33.22;21.51;98330.66;5079578;28;20064;-79
2022/07/13 04:36:22;;;;;;;0.85;0.30;;;;;;;33.30;21.82;98339.59;5075397;28;20036;-80
2022/07/13 04:38:48;;;;;;;0.95;0.60;;;;;;;33.14;22.57;98340.84;5080179;28;20032;-80
2022/07/13 04:41:14;;;;;;;0.65;0.40;;;;;;;32.83;23.26;98336.88;5088357;28;20523;-80
2022/07/13 04:43:45;;;;;;;0.88;0.30;;;;;;;33.48;21.88;98341.44;5080216;28;20024;-80
2022/07/13 04:46:12;;;;;;;;;;;;;;;33.39;21.60;98345.19;5087898;28;20388;-80
2022/07/13 04:48:38;;;;;;;1.85;0.50;;;;;;;32.76;23.78;98343.72;5091002;28;19998;-79
2022/07/13 04:51:04;;;;;;;0.75;0.40;;;;;;;33.11;22.25;98350.38;5092165;28;20500;-80
2022/07/13 04:53:30;;;;;;;0.40;0.40;;;;;;;34.05;21.73;98349.13;5063985;28;20028;-80
2022/07/13 04:55:57;;;;;;;2.35;0.50;;;;;;;34.48;21.44;98352.28;5092056;28;20396;-80
2022/07/13 04:58:23;;;;;;;1.30;0.43;;;;;;;33.66;21.59;98349.78;5072732;28;20036;-80
2022/07/13 05:00:49;;;;;;;0.75;0.38;;;;;;;34.16;21.50;98347.72;5082906;28;20044;-79
2022/07/13 05:03:16;;;;;;;0.93;0.45;;;;;;;34.05;21.58;98351.22;5085287;28;20032;-79
2022/07/13 05:05:42;;;;;;;2.08;0.52;;;;;;;33.42;22.22;98344.19;5091255;28;20039;-80
2022/07/13 05:08:08;;;;;;;0.40;0.32;;;;;;;33.20;23.15;98349.50;5084200;28;20047;-80
2022/07/13 05:10:34;;;;;;;0.80;0.30;;;;;;;33.14;22.96;98346.53;5072171;28;20040;-80
2022/07/13 05:13:00;;;;;;;0.70;0.47;;;;;;;32.80;23.58;98349.22;5092567;28;20063;-80
2022/07/13 05:15:26;;;;;;;0.40;0.40;;;;;;;33.54;22.60;98348.03;5094235;28;20437;-80
2022/07/13 05:17:52;;;;;;;0.80;0.50;;;;;;;33.28;23.25;98347.84;5087370;28;20032;-79
2022/07/13 05:20:18;;;;;;;0.32;0.32;;;;;;;33.44;22.86;98348.09;5063391;28;20036;-80
2022/07/13 05:22:44;;;;;;;0.50;0.30;;;;;;;33.36;23.10;98341.25;5086269;28;20028;-80
2022/07/13 05:25:11;;;;;;;0.32;0.30;;;;;;;33.47;23.09;98351.25;5070994;28;20047;-80
2022/07/13 05:27:37;;;;;;;0.32;0.32;;;;;;;33.04;23.21;98355.66;5068910;28;20048;-79
2022/07/13 05:30:03;;;;;;;0.70;0.35;;;;;;;32.17;24.70;98348.41;5081149;28;20118;-79
2022/07/13 05:32:29;;;;;;;0.40;0.40;;;;;;;33.11;23.61;98350.38;5088465;28;20149;-80
2022/07/13 05:34:56;;;;;;;0.75;0.40;;;;;;;33.10;24.31;98345.16;5092581;28;20589;-80
2022/07/13 05:37:22;;;;;;;1.02;0.50;;;;;;;32.56;24.74;98330.16;5083445;28;20393;-79
2022/07/13 05:39:48;;;;;;;1.10;0.35;;;;;;;32.17;24.72;98354.09;5082395;28;20066;-79
2022/07/13 05:42:14;;;;;;;0.40;0.40;;;;;;;32.33;24.71;98342.28;5092759;28;20040;-80
2022/07/13 05:44:41;;;;;;;0.50;0.40;;;;;;;32.46;24.83;98344.91;5093815;28;20455;-80
2022/07/13 05:47:07;;;;;;;0.30;0.30;;;;;;;33.00;24.07;98340.81;5079640;28;20519;-80
2022/07/13 05:49:33;;;;;;;0.32;0.30;;;;;;;33.11;23.76;98341.06;5084210;28;20115;-79
2022/07/13 05:51:59;;;;;;;0.70;0.65;;;;;;;33.26;23.19;98348.31;5091861;28;20055;-80
2022/07/13 05:54:26;;;;;;;0.55;0.30;;;;;;;33.00;24.76;98346.53;5090400;28;20031;-79
2022/07/13 05:56:52;;;;;;;0.30;0.30;;;;;;;33.26;25.19;98350.38;5085680;28;20033;-80
2022/07/13 05:59:18;;;;;;;0.50;0.32;;;;;;;34.14;23.66;98347.44;5078187;28;20049;-80
2022/07/13 06:01:44;;;;;;;0.52;0.40;;;;;;;34.32;23.33;98353.66;5080776;28;20044;-80
2022/07/13 06:04:10;;;;;;;0.63;0.20;;;;;;;33.58;23.77;98357.97;5092218;28;20031;-80
2022/07/13 06:06:37;;;;;;;0.50;0.22;;;;;;;34.32;23.83;98356.50;5084411;28;20043;-80
2022/07/13 06:09:03;;;;;;;1.30;0.32;;;;;;;33.72;23.26;98362.06;5086909;28;20105;-79
2022/07/13 06:11:30;;;;;;;0.68;0.22;;;;;;;33.33;23.92;98362.16;5080829;28;20036;-80
2022/07/13 06:13:56;;;;;;;0.93;0.40;;;;;;;33.40;23.71;98352.44;5085608;28;20085;-79
2022/07/13 06:16:22;;;;;;;0.63;0.40;;;;;;;32.91;24.63;98346.59;5089582;28;20038;-79
2022/07/13 06:18:48;;;;;;;0.30;0.30;;;;;;;33.07;23.87;98331.94;5091801;28;20035;-79
2022/07/13 06:21:15;;;;;;;1.15;0.43;;;;;;;32.77;24.40;98347.38;5093995;28;20028;-80
2022/07/13 06:23:41;;;;;;;1.05;0.50;;;;;;;33.78;23.29;98345.81;5083062;28;20099;-80
2022/07/13 06:26:07;;;;;;;0.73;0.55;;;;;;;33.34;23.51;98345.88;5083390;28;20179;-80
2022/07/13 06:28:33;;;;;;;1.10;0.60;;;;;;;33.36;23.25;98349.78;5080213;28;20489;-80
2022/07/13 06:30:59;;;;;;;0.95;0.60;;;;;;;32.48;24.37;98333.81;5084885;28;20051;-80
2022/07/13 06:33:25;;;;;;;1.35;0.73;;;;;;;32.35;25.55;98339.00;5102962;28;20031;-80
2022/07/13 06:35:51;;;;;;;1.02;0.60;;;;;;;32.86;24.26;98359.44;5079353;28;20036;-80
2022/07/13 06:38:17;;;;;;;0.77;0.60;;;;;;;33.48;23.78;98347.13;5082619;28;20040;-80
2022/07/13 06:40:45;;;;;;;3.47;0.52;;;;;;;32.72;23.96;98348.84;5080898;28;20080;-80
2022/07/13 06:43:12;;;;;;;0.75;0.60;;;;;;;32.75;24.47;98348.63;5090422;28;20094;-80
2022/07/13 06:45:38;;;;;;;0.98;0.70;;;;;;;32.35;24.29;98344.69;5101502;28;20032;-80
2022/07/13 06:48:04;;;;;;;2.10;0.60;;;;;;;32.79;24.13;98353.34;5092782;28;20067;-80
2022/07/13 06:50:30;;;;;;;0.82;0.60;;;;;;;32.52;24.28;98332.41;5078474;28;20165;-80
2022/07/13 06:52:56;;;;;;;1.05;0.60;;;;;;;33.08;23.62;98356.25;5078466;28;20028;-80
2022/07/13 06:55:22;;;;;;;1.27;0.47;;;;;;;32.64;24.70;98347.63;5084024;28;20029;-80
2022/07/13 06:57:49;;;;;;;0.47;0.43;;;;;;;33.15;24.75;98341.63;5088375;28;20558;-80
2022/07/13 07:00:15;;;;;;;0.65;0.40;;;;;;;33.83;24.31;98350.81;5092940;28;20523;-80
2022/07/13 07:02:41;;;;;;;1.85;0.60;;;;;;;33.48;23.32;98350.75;5085966;28;20032;-80
2022/07/13 07:05:11;;;;;;;1.40;0.70;;;;;;;33.62;23.84;98349.19;5090252;28;20024;-80
2022/07/13 07:07:39;;;;;;;1.00;0.63;;;;;;;33.80;24.22;98341.22;5083632;28;20047;-81
2022/07/13 07:10:06;;;;;;;1.85;0.57;;;;;;;32.39;25.17;98339.59;5091952;28;20032;-80
2022/07/13 07:12:32;;;;;;;0.98;0.68;;;;;;;32.38;25.34;98341.63;5098759;27;20400;-80
2022/07/13 07:14:58;;;;;;;0.52;0.47;;;;;;;33.02;24.97;98341.16;5083728;28;20024;-80
2022/07/13 07:17:24;;;;;;;0.90;0.40;;;;;;;33.81;23.79;98347.69;5090293;28;20125;-80
2022/07/13 07:19:51;;;;;;;0.68;0.47;;;;;;;33.60;24.60;98337.53;5082451;28;20508;-81
2022/07/13 07:22:17;;;;;;;0.50;0.50;;;;;;;33.72;23.67;98337.22;5094696;28;20035;-79
2022/07/13 07:24:43;;;;;;;1.10;0.57;;;;;;;33.55;23.65;98327.63;5081043;28;20109;-81
2022/07/13 07:27:10;;;;;;;0.50;0.50;;;;;;;33.64;23.75;98343.78;5083619;28;20035;-81
2022/07/13 07:29:37;;;;;;;1.05;0.50;;;;;;;33.01;24.94;98351.75;5090670;28;20518;-79
2022/07/13 07:32:04;;;;;;;0.68;0.60;;;;;;;33.52;24.44;98342.00;5095521;28;20060;-81
2022/07/13 07:34:30;;;;;;;1.27;0.68;;;;;;;33.26;24.12;98345.47;5080028;28;20024;-80
2022/07/13 07:36:56;;;;;;;0.70;0.50;;;;;;;33.21;25.04;98342.53;5092477;28;20082;-80
2022/07/13 07:39:23;;;;;;;0.77;0.50;;;;;;;33.08;24.86;98348.50;5098511;28;20122;-79
2022/07/13 07:41:50;;;;;;;1.33;0.70;;;;;;;33.54;24.04;98348.03;5080773;28;20519;-79
2022/07/13 07:44:18;;;;;;;1.45;0.65;;;;;;;33.78;24.32;98352.31;5086940;28;20059;-80
2022/07/13 07:46:44;;;;;;;1.13;0.60;;;;;;;33.50;24.17;98353.09;5087800;28;20028;-80
2022/07/13 07:49:11;;;;;;;1.20;0.85;;;;;;;33.35;24.58;98351.06;5081999;28;20033;-79
2022/07/13 07:51:37;;;;;;;0.75;0.73;;;;;;;33.21;23.83;98351.06;5078957;28;20029;-78
2022/07/13 07:54:03;;;;;;;2.08;0.70;;;;;;;32.43;24.65;98369.41;5064584;28;20039;-78
2022/07/13 07:56:29;;;;;;;1.08;0.70;;;;;;;32.75;25.17;98354.31;5082892;28;20478;-77
2022/07/13 07:58:55;;;;;;;1.17;0.50;;;;;;;32.72;25.58;98352.44;5081206;28;20046;-78
2022/07/13 08:01:22;;;;;;;2.95;0.80;;;;;;;32.75;24.90;98359.22;5078810;28;20032;-77
2022/07/13 08:03:48;;;;;;;1.95;0.52;;;;;;;32.97;24.80;98347.50;5080115;28;20495;-78
2022/07/13 08:06:15;;;;;;;0.60;0.60;;;;;;;32.76;26.04;98349.41;5091932;28;20056;-79
2022/07/13 08:08:42;;;;;;;0.80;0.50;;;;;;;33.48;25.03;98342.22;5077838;28;20389;-78
2022/07/13 08:11:09;;;;;;;1.05;0.90;;;;;;;33.78;23.31;98349.47;5068342;28;20035;-78
2022/07/13 08:13:36;;;;;;;1.45;0.60;;;;;;;32.45;24.85;98312.84;5088582;28;20028;-78
2022/07/13 08:16:03;;;;;;;1.95;0.60;;;;;;;32.48;25.58;98351.69;5077599;28;20383;-78
2022/07/13 08:18:29;;;;;;;1.02;0.70;;;;;;;32.36;25.25;98332.03;5091336;28;20439;-78
2022/07/13 08:20:55;;;;;;;0.85;0.70;;;;;;;31.42;27.62;98354.09;5061541;28;20047;-78
2022/07/13 08:26:06;;;;;;;0.70;0.68;;;;;;;31.51;27.47;98336.25;5080313;28;20407;-78
2022/07/13 08:28:32;;;;;;;3.35;0.85;;;;;;;32.16;25.51;98340.38;5079152;28;20028;-78
2022/07/13 08:30:59;;;;;;;1.58;0.65;;;;;;;32.59;24.40;98340.56;5073054;28;20043;-78
2022/07/13 08:38:54;;;;;;;1.00;0.50;;;;;;;32.49;25.82;98343.91;5074523;28;20130;-79
2022/07/13 08:41:20;;;;;;;2.25;0.57;;;;;;;31.91;26.13;98359.41;5072313;28;20028;-80
2022/07/13 08:43:47;;;;;;;0.63;0.50;;;;;;;33.21;24.52;98336.84;5076302;28;20097;-79
2022/07/13 08:46:13;;;;;;;1.10;0.50;;;;;;;33.46;24.41;98336.25;5081676;28;20054;-78
2022/07/13 08:48:41;;;;;;;1.40;0.52;;;;;;;33.98;24.02;98340.19;5077134;28;20105;-79
2022/07/13 08:51:08;;;;;;;0.50;0.50;;;;;;;34.74;22.41;98339.69;5075814;28;20480;-78
2022/07/13 08:53:34;;;;;;;0.40;0.40;;;;;;;34.18;23.38;98337.38;5058811;28;20127;-78
2022/07/13 08:56:01;;;;;;;0.60;0.40;;;;;;;34.01;24.08;98339.19;5074301;28;20032;-80
2022/07/13 08:58:27;;;;;;;1.13;0.60;;;;;;;33.46;23.83;98329.75;5071116;28;20475;-79
2022/07/13 09:00:53;;;;;;;0.50;0.50;;;;;;;33.71;23.35;98332.00;5071075;28;20275;-79
2022/07/13 09:03:20;;;;;;;1.48;0.50;;;;;;;33.55;23.93;98336.16;5069891;28;20319;-79
2022/07/13 09:05:46;;;;;;;0.70;0.50;;;;;;;32.72;24.77;98338.22;5070601;28;20063;-79
2022/07/13 09:08:13;;;;;;;0.50;0.50;;;;;;;33.54;24.10;98331.72;5073900;28;20039;-79
2022/07/13 09:10:57;;;;;;;1.02;0.60;;;;;;;33.48;24.91;98347.91;5074536;28;20526;-79
2022/07/13 09:13:41;;;;;;;0.68;0.52;;;;;;;33.59;23.68;98335.94;5077507;28;20032;-81
2022/07/13 09:16:21;;;;;;;3.63;0.68;;;;;;;33.34;24.09;98329.56;5069921;28;20032;-78
2022/07/13 09:19:00;;;;;;;2.17;0.50;;;;;;;33.36;24.16;98331.91;5069690;28;20103;-80
2022/07/13 09:21:30;;;;;;;0.95;0.57;;;;;;;32.64;25.36;98305.75;5080437;28;20123;-79
2022/07/13 09:23:59;;;;;;;1.65;0.60;;;;;;;32.53;25.14;98331.13;5074072;28;20048;-80
2022/07/13 09:26:45;;;;;;;3.90;0.60;;;;;;;33.12;24.22;98334.06;5072718;28;20117;-78
2022/07/13 09:29:13;;;;;;;2.58;0.60;;;;;;;33.74;24.55;98326.09;5077926;28;20041;-79
2022/07/13 09:31:53;;;;;;;1.13;0.65;;;;;;;33.39;23.64;98333.78;5074729;28;20411;-78
2022/07/13 09:34:50;;;;;;;1.10;0.50;;;;;;;33.62;23.68;98332.13;5076262;28;20374;-78
2022/07/13 09:37:18;;;;;;;0.70;0.52;;;;;;;33.79;24.38;98316.06;5050678;28;20040;-79
2022/07/13 09:39:57;;;;;;;1.45;0.50;;;;;;;34.07;23.87;98323.00;5073465;28;20048;-79
2022/07/13 09:42:28;;;;;;;1.77;0.52;;;;;;;34.59;22.16;98324.72;5072841;28;20043;-78
2022/07/13 09:47:53;;;;;;;2.05;0.50;;;;;;;33.86;22.97;98329.91;5077583;28;20051;-79
2022/07/13 09:50:24;;;;;;;0.73;0.68;;;;;;;33.71;23.93;98347.03;5070694;28;20041;-79
2022/07/13 09:52:52;;;;;;;3.75;0.60;;;;;;;33.95;22.75;98324.06;5076548;28;20105;-78
2022/07/13 09:55:21;;;;;;;1.23;0.70;;;;;;;33.91;23.27;98343.47;5068715;28;20043;-78
2022/07/13 09:57:56;;;;;;;0.60;0.43;;;;;;;34.17;23.92;98347.22;5070069;28;20036;-79
2022/07/13 10:04:03;;;;;;;1.75;0.70;;;;;;;34.54;22.24;98328.28;5069803;28;20140;-79
2022/07/13 10:06:30;;;;;;;1.63;0.80;;;;;;;34.90;23.15;98335.44;5072659;28;20089;-78
2022/07/13 10:08:56;;;;;;;0.60;0.50;;;;;;;34.77;22.07;98328.56;5083434;28;20040;-79
2022/07/13 10:11:23;;;;;;;1.70;0.50;;;;;;;34.60;22.89;98346.25;5088304;28;20177;-80
2022/07/13 10:13:49;;;;;;;1.77;0.50;;;;;;;34.94;22.56;98347.41;5072920;28;20068;-80
2022/07/13 10:16:15;;;;;;;0.85;0.55;;;;;;;34.59;22.76;98338.19;5082605;28;20387;-80
2022/07/13 10:18:42;;;;;;;0.60;0.50;;;;;;;34.96;22.09;98315.53;5083042;28;20036;-78
2022/07/13 10:21:37;;;;;;;0.50;0.38;;;;;;;34.07;21.45;98325.84;5070565;28;20105;-79
2022/07/13 10:24:12;;;;;;;0.88;0.50;;;;;;;34.67;21.87;98334.41;5083059;28;20078;-79
2022/07/13 10:26:39;;;;;;;1.10;0.40;;;;;;;34.69;21.54;98326.13;5069747;28;20141;-79
2022/07/13 10:29:10;;;;;;;1.75;0.50;;;;;;;34.37;22.77;98324.44;5083624;28;20452;-79
2022/07/13 10:31:37;;;;;;;0.80;0.50;;;;;;;34.42;23.55;98329.41;5088519;28;20609;-79
2022/07/13 10:34:05;;;;;;;0.63;0.40;;;;;;;34.79;21.23;98323.91;5072423;28;20033;-80
2022/07/13 10:36:50;;;;;;;0.80;0.43;;;;;;;35.44;21.84;98322.22;5074556;28;20032;-80
2022/07/13 10:39:17;;;;;;;0.60;0.38;;;;;;;34.97;23.05;98305.66;5067826;28;20032;-79
2022/07/13 10:42:04;;;;;;;1.23;0.40;;;;;;;34.49;22.54;98326.13;5073408;28;20051;-79
2022/07/13 10:44:33;;;;;;;0.95;0.60;;;;;;;35.40;21.56;98321.69;5068248;28;20128;-80
2022/07/13 10:47:00;;;;;;;2.38;0.50;;;;;;;36.12;21.22;98325.09;5068361;28;20043;-79
2022/07/13 10:49:47;;;;;;;0.77;0.35;;;;;;;36.15;20.90;98335.53;5069337;28;20032;-79
2022/07/13 10:52:25;;;;;;;0.90;0.60;;;;;;;34.71;22.97;98323.56;5074910;28;20048;-80
2022/07/13 10:55:11;;;;;;;3.20;0.30;;;;;;;35.91;21.43;98338.72;5067488;28;20033;-80
2022/07/13 10:57:39;;;;;;;0.40;0.40;;;;;;;35.89;21.04;98323.38;5071166;28;20052;-79
2022/07/13 11:00:19;;;;;;;0.50;0.30;;;;;;;35.40;20.47;98311.03;5080133;28;20053;-79
2022/07/13 11:02:49;;;;;;;0.50;0.40;;;;;;;35.48;21.99;98331.34;5075784;28;20032;-79
2022/07/13 11:05:19;;;;;;;0.65;0.50;;;;;;;35.66;21.62;98336.72;5076633;28;20066;-79
2022/07/13 11:07:49;;;;;;;1.63;0.45;;;;;;;35.68;19.79;98331.28;5075908;28;20038;-80
2022/07/13 11:10:33;;;;;;;2.00;0.47;;;;;;;35.86;20.25;98335.81;5084720;28;20044;-80
2022/07/13 11:13:13;;;;;;;4.15;0.45;;;;;;;35.98;19.75;98332.56;5094865;28;20028;-79
2022/07/13 11:15:52;;;;;;;0.57;0.57;;;;;;;35.54;20.01;98332.22;5107918;28;20384;-79
2022/07/13 11:18:21;;;;;;;0.73;0.43;;;;;;;35.01;22.72;98326.22;5092502;28;20480;-80
2022/07/13 11:21:02;;;;;;;1.38;0.47;;;;;;;35.66;21.04;98339.56;5095403;28;20082;-80
2022/07/13 11:26:40;;;;;;;6.23;0.40;;;;;;;35.16;20.66;98332.63;5094536;28;20047;-81
2022/07/13 11:29:28;;;;;;;3.03;0.50;;;;;;;34.94;21.30;98332.38;5100305;28;20339;-80
2022/07/13 11:31:59;;;;;;;0.45;0.40;;;;;;;34.92;21.84;98321.44;5084811;28;20136;-78
2022/07/13 11:34:27;;;;;;;0.38;0.38;;;;;;;34.79;22.77;98331.69;5094615;28;20035;-80
2022/07/13 11:36:55;;;;;;;0.65;0.40;;;;;;;35.31;20.83;98324.72;5092070;28;20027;-79
2022/07/13 11:39:29;;;;;;;0.70;0.40;;;;;;;35.73;21.48;98321.97;5092014;28;20101;-80
2022/07/13 11:41:58;;;;;;;2.63;1.38;;;;;;;36.47;20.36;98311.25;5086660;28;20024;-80
2022/07/13 11:44:31;;;;;;;1.30;0.32;;;;;;;35.96;20.86;98312.25;5091172;28;20043;-78
2022/07/13 11:47:01;;;;;;;0.40;0.40;;;;;;;35.89;20.07;98309.09;5088160;28;20032;-78
2022/07/13 11:49:27;;;;;;;0.55;0.38;;;;;;;35.44;19.92;98305.09;5084236;28;20033;-80
2022/07/13 11:51:54;;;;;;;0.82;0.45;;;;;;;34.78;21.03;98304.44;5075781;28;20107;-82
2022/07/13 11:54:22;;;;;;;0.60;0.60;;;;;;;35.60;20.61;98301.63;5077814;28;20081;-80